M I D A S
Marine Information and Data Acquisition System
Tripno 2316 of the Zeeleeuw from 2012-05-21 08:23:06 to 2012-05-21 13:44:45
Back to CruiseResearch ActivitiesStationsMapUnderway DataData graphs

EquipmentUnitsComment
TimeDGPSUTC
LatitudeDGPSDM.mWGS84
LongitudeDGPSDM.mWGS84
HeadingGyrodeg 
SOGDGPSknotsSpeed over ground
COGDGPSdegCourse over ground
DepthEcho soundermeters200 kHz
Missing or incorrect values are displayed as -999
Navigation data collected by the RV Zeeleeuw from 2012-05-21 06:07:44 to 2012-05-21 13:58:18
Time Latitude Longitude Heading SOG COG Depth
2012-05-21 06:08:48 51°13.636 2°56.018 125.1 0.2 24 -999
2012-05-21 06:09:49 51°13.638 2°56.017 125.1 0.2 210 -999
2012-05-21 06:10:49 51°13.64 2°56.019 125.1 -999 6 -999
2012-05-21 06:11:48 51°13.64 2°56.02 125.1 0.1 211 -999
2012-05-21 06:12:49 51°13.64 2°56.02 125.1 -999 358 -999
2012-05-21 06:13:49 51°13.639 2°56.02 125 0.1 9 -999
2012-05-21 06:14:49 51°13.639 2°56.02 124.9 -999 356 -999
2012-05-21 06:15:49 51°13.638 2°56.02 125 -999 219 -999
2012-05-21 06:16:49 51°13.638 2°56.019 125 0.1 177 -999
2012-05-21 06:17:48 51°13.638 2°56.019 124.9 0.1 12 -999
2012-05-21 06:18:49 51°13.637 2°56.019 124.9 0.1 185 -999
2012-05-21 06:19:48 51°13.637 2°56.019 124.9 -999 260 -999
2012-05-21 06:20:49 51°13.636 2°56.019 124.9 -999 156 -999
2012-05-21 06:21:49 51°13.636 2°56.019 124.9 -999 39 -999
2012-05-21 06:22:48 51°13.636 2°56.018 124.9 0.1 176 -999
2012-05-21 06:23:49 51°13.635 2°56.018 124.9 0.1 184 -999
2012-05-21 06:24:49 51°13.635 2°56.018 124.9 -999 4 -999
2012-05-21 06:25:49 51°13.635 2°56.018 124.9 -999 205 -999
2012-05-21 06:26:49 51°13.636 2°56.018 124.9 0.1 34 -999
2012-05-21 06:27:49 51°13.636 2°56.019 124.9 0.1 60 -999
2012-05-21 06:28:49 51°13.635 2°56.018 124.9 -999 20 -999
2012-05-21 06:29:48 51°13.635 2°56.018 124.9 0.1 29 -999
2012-05-21 06:30:49 51°13.636 2°56.018 124.9 -999 221 -999
2012-05-21 06:31:49 51°13.636 2°56.018 124.9 -999 140 -999
2012-05-21 06:32:49 51°13.636 2°56.018 124.9 -999 279 -999
2012-05-21 06:33:49 51°13.636 2°56.018 124.9 -999 48 -999
2012-05-21 06:34:49 51°13.634 2°56.017 124.9 0.1 200 -999
2012-05-21 06:35:49 51°13.636 2°56.017 124.9 -999 207 -999
2012-05-21 06:36:49 51°13.636 2°56.017 124.9 -999 128 -999
2012-05-21 06:37:48 51°13.636 2°56.016 124.9 -999 157 -999
2012-05-21 06:38:48 51°13.635 2°56.017 124.9 0.1 189 -999
2012-05-21 06:39:49 51°13.635 2°56.018 124.9 -999 178 -999
2012-05-21 06:40:48 51°13.635 2°56.019 124.9 -999 190 -999
2012-05-21 06:41:49 51°13.635 2°56.019 125 -999 187 -999
2012-05-21 06:42:48 51°13.635 2°56.019 125 0.1 163 -999
2012-05-21 06:43:49 51°13.635 2°56.019 125 -999 255 -999
2012-05-21 06:44:49 51°13.635 2°56.019 125.1 -999 292 -999
2012-05-21 06:45:49 51°13.636 2°56.019 125.1 -999 222 -999
2012-05-21 06:46:48 51°13.636 2°56.019 125.1 -999 166 -999
2012-05-21 06:47:48 51°13.635 2°56.019 125.2 -999 188 -999
2012-05-21 06:48:49 51°13.635 2°56.019 125.2 -999 333 -999
2012-05-21 06:49:49 51°13.635 2°56.019 125.2 0.1 188 -999
2012-05-21 06:50:49 51°13.634 2°56.019 125.2 -999 156 -999
2012-05-21 06:51:49 51°13.634 2°56.019 125.2 -999 327 -999
2012-05-21 06:52:48 51°13.634 2°56.019 125.3 -999 304 -999
2012-05-21 06:53:48 51°13.634 2°56.02 125.5 -999 145 -999
2012-05-21 06:54:48 51°13.635 2°56.019 125.5 -999 199 -999
2012-05-21 06:55:48 51°13.635 2°56.019 125.5 0.1 181 -999
2012-05-21 06:56:49 51°13.636 2°56.019 125.5 0.1 162 -999
2012-05-21 06:57:48 51°13.637 2°56.019 125.5 0.1 3 -999
2012-05-21 06:58:48 51°13.637 2°56.019 125.5 0.1 298 -999
2012-05-21 06:59:49 51°13.637 2°56.018 125.5 -999 108 -999
2012-05-21 07:00:49 51°13.637 2°56.019 125.6 0.1 155 -999
2012-05-21 07:01:49 51°13.637 2°56.019 125.6 -999 270 -999
2012-05-21 07:02:49 51°13.638 2°56.019 125.6 -999 6 -999
2012-05-21 07:03:49 51°13.638 2°56.021 125.6 -999 156 -999
2012-05-21 07:04:49 51°13.638 2°56.019 125.6 0.1 334 -999
2012-05-21 07:05:49 51°13.638 2°56.019 125.5 -999 184 -999
2012-05-21 07:06:49 51°13.638 2°56.019 125.5 -999 324 -999
2012-05-21 07:07:49 51°13.638 2°56.019 125.4 -999 158 -999
2012-05-21 07:08:49 51°13.637 2°56.018 125.4 0.1 336 -999
2012-05-21 07:09:49 51°13.637 2°56.019 125.5 -999 300 -999
2012-05-21 07:10:49 51°13.637 2°56.019 125.5 0.1 324 -999
2012-05-21 07:11:49 51°13.635 2°56.019 125.4 0.1 195 -999
2012-05-21 07:12:49 51°13.634 2°56.019 125.4 0.1 38 -999
2012-05-21 07:13:48 51°13.635 2°56.019 125.4 -999 137 -999
2012-05-21 07:14:49 51°13.634 2°56.019 125.3 -999 254 -999
2012-05-21 07:15:49 51°13.634 2°56.019 125.3 -999 232 -999
2012-05-21 07:16:49 51°13.635 2°56.018 125.3 0.1 176 -999
2012-05-21 07:17:49 51°13.636 2°56.018 125.3 0.1 142 -999
2012-05-21 07:18:49 51°13.635 2°56.017 125.2 -999 168 -999
2012-05-21 07:19:49 51°13.636 2°56.017 125.2 -999 106 -999
2012-05-21 07:20:49 51°13.636 2°56.017 125.2 -999 276 -999
2012-05-21 07:21:49 51°13.636 2°56.016 125.3 0.1 195 -999
2012-05-21 07:22:49 51°13.637 2°56.015 125.3 -999 215 -999
2012-05-21 07:23:49 51°13.637 2°56.016 125.3 -999 171 -999
2012-05-21 07:24:49 51°13.638 2°56.014 125.3 -999 155 -999
2012-05-21 07:25:49 51°13.638 2°56.014 125.3 -999 7 -999
2012-05-21 07:26:49 51°13.638 2°56.015 125.3 -999 220 -999
2012-05-21 07:27:49 51°13.638 2°56.015 125.3 0.1 110 -999
2012-05-21 07:28:49 51°13.639 2°56.015 125.3 0.1 151 -999
2012-05-21 07:29:49 51°13.639 2°56.016 125.3 -999 182 -999
2012-05-21 07:30:49 51°13.638 2°56.016 125.3 0.1 306 -999
2012-05-21 07:31:49 51°13.637 2°56.018 125.2 0.1 146 -999
2012-05-21 07:32:49 51°13.636 2°56.018 125.1 0.1 346 -999
2012-05-21 07:33:49 51°13.637 2°56.016 125.1 0.1 310 -999
2012-05-21 07:34:49 51°13.636 2°56.017 125.2 0.1 242 -999
2012-05-21 07:35:49 51°13.636 2°56.018 125.1 -999 193 -999
2012-05-21 07:36:49 51°13.635 2°56.019 125 0.1 163 -999
2012-05-21 07:37:48 51°13.635 2°56.019 125 0.1 152 -999
2012-05-21 07:38:49 51°13.636 2°56.018 125 -999 321 -999
2012-05-21 07:39:49 51°13.636 2°56.018 125.1 -999 255 -999
2012-05-21 07:40:49 51°13.636 2°56.018 125.1 0.1 341 -999
2012-05-21 07:41:49 51°13.636 2°56.017 125.2 0.1 328 -999
2012-05-21 07:42:49 51°13.636 2°56.018 125.2 -999 158 -999
2012-05-21 07:43:49 51°13.636 2°56.021 125 0.1 147 -999
2012-05-21 07:44:49 51°13.636 2°56.019 124.9 0.1 145 -999
2012-05-21 07:45:49 51°13.638 2°56.019 125 0.1 318 -999
2012-05-21 07:46:48 51°13.637 2°56.02 125 -999 179 -999
2012-05-21 07:47:48 51°13.637 2°56.019 125 0.2 319 -999
2012-05-21 07:48:48 51°13.637 2°56.019 125.1 -999 167 -999
2012-05-21 07:49:48 51°13.637 2°56.019 125 0.1 350 -999
2012-05-21 07:50:48 51°13.636 2°56.02 125.1 0.2 142 -999
2012-05-21 07:51:48 51°13.637 2°56.018 125.1 0.1 323 -999
2012-05-21 07:52:48 51°13.637 2°56.018 125.1 -999 334 -999
2012-05-21 07:53:48 51°13.636 2°56.019 125.2 0.1 121 -999
2012-05-21 07:54:48 51°13.638 2°56.018 125.3 0.1 342 -999
2012-05-21 07:55:48 51°13.637 2°56.018 125.3 0.1 282 -999
2012-05-21 07:56:49 51°13.636 2°56.018 125.5 0.1 145 -999
2012-05-21 07:57:48 51°13.636 2°56.018 125.4 -999 143 7.2
2012-05-21 07:58:48 51°13.636 2°56.018 125.7 0.1 300 7.3
2012-05-21 07:59:48 51°13.636 2°56.018 125.3 0.1 173 -999
2012-05-21 08:00:48 51°13.636 2°56.019 126.5 0.1 284 7.3
2012-05-21 08:01:48 51°13.636 2°56.019 126.2 0.1 105 7.2
2012-05-21 08:02:47 51°13.636 2°56.019 126.5 0.1 307 7.3
2012-05-21 08:03:47 51°13.635 2°56.02 126.4 0.1 156 7.2
2012-05-21 08:04:45 51°13.635 2°56.019 126.4 0.1 335 7.2
2012-05-21 08:05:46 51°13.635 2°56.019 126.5 -999 219 7.2
2012-05-21 08:06:45 51°13.635 2°56.018 126.6 0.1 334 7.3
2012-05-21 08:07:45 51°13.636 2°56.018 126.6 -999 296 7.3
2012-05-21 08:08:45 51°13.637 2°56.018 126.6 -999 159 7.3
2012-05-21 08:09:47 51°13.636 2°56.018 126.6 -999 277 7.4
2012-05-21 08:10:45 51°13.636 2°56.018 126.6 0.2 136 7.3
2012-05-21 08:11:49 51°13.638 2°56.016 125.8 -999 237 -999
2012-05-21 08:12:49 51°13.637 2°56.016 126.5 -999 223 -999
2012-05-21 08:13:48 51°13.638 2°56.016 126.4 -999 208 7.3
2012-05-21 08:14:48 51°13.641 2°56.017 126.4 0.1 350 -999
2012-05-21 08:15:49 51°13.637 2°56.017 113.8 0.1 211 -999
2012-05-21 08:16:48 51°13.64 2°55.989 107.5 2.8 285 -999
2012-05-21 08:17:48 51°13.662 2°55.895 119.8 4.1 293 -999
2012-05-21 08:18:48 51°13.697 2°55.794 130.2 4.8 307 -999
2012-05-21 08:19:48 51°13.753 2°55.702 142.5 5.1 319 -999
2012-05-21 08:20:48 51°13.822 2°55.628 157.8 4.9 334 -999
2012-05-21 08:21:48 51°13.899 2°55.598 183.4 4.7 2 -999
2012-05-21 08:22:48 51°13.96 2°55.634 215.8 3.6 31 -999
2012-05-21 08:23:48 51°13.975 2°55.641 261.1 2.5 264 -999
2012-05-21 08:24:48 51°14.007 2°55.546 315.1 5.8 312 -999
2012-05-21 08:25:48 51°14.106 2°55.433 332.5 8.2 330 -999
2012-05-21 08:26:48 51°14.233 2°55.332 336.2 8.7 333 -999
2012-05-21 08:27:48 51°14.361 2°55.204 328.1 9.5 325 -999
2012-05-21 08:28:48 51°14.496 2°55.052 332.9 10.1 329 -999
2012-05-21 08:29:47 51°14.633 2°54.862 334.2 11.7 321 10.9
2012-05-21 08:30:45 51°14.704 2°54.593 277.4 12.2 262 10.8
2012-05-21 08:31:45 51°14.577 2°54.335 223.7 13.2 228 9.5
2012-05-21 08:32:45 51°14.415 2°54.097 227.4 13.4 230 9.8
2012-05-21 08:33:45 51°14.276 2°53.822 235.6 13.2 233 9.2
2012-05-21 08:34:45 51°14.151 2°53.533 239.3 13.2 237 9.2
2012-05-21 08:35:45 51°14.014 2°53.26 232.8 12.9 229 9.2
2012-05-21 08:36:45 51°13.876 2°52.986 236.7 13.4 231 10.1
2012-05-21 08:37:44 51°13.751 2°52.705 238.1 13.3 234 9.5
2012-05-21 08:38:45 51°13.629 2°52.406 241.6 13.1 237 9.7
2012-05-21 08:39:44 51°13.511 2°52.115 239.8 13.5 235 10.2
2012-05-21 08:40:45 51°13.388 2°51.813 238.9 13.4 235 10.5
2012-05-21 08:41:45 51°13.262 2°51.521 238.5 13.1 240 10
2012-05-21 08:42:44 51°13.138 2°51.232 238.1 13.5 234 9.7
2012-05-21 08:43:44 51°13.014 2°50.934 240.8 13.6 237 10
2012-05-21 08:44:44 51°12.898 2°50.625 242.6 13.6 240 10.1
2012-05-21 08:45:45 51°12.78 2°50.309 241.7 13.6 237 10.1
2012-05-21 08:46:44 51°12.667 2°50.003 240.8 13.6 237 10.3
2012-05-21 08:47:45 51°12.548 2°49.69 238.9 13.5 239 10.3
2012-05-21 08:48:45 51°12.43 2°49.381 244.7 13.6 243 9.6
2012-05-21 08:49:45 51°12.318 2°49.071 240.7 13.6 238 9.7
2012-05-21 08:50:45 51°12.205 2°48.76 243.9 13.7 238 10.4
2012-05-21 08:51:45 51°12.088 2°48.452 240.5 13.7 237 10
2012-05-21 08:52:45 51°11.981 2°48.139 246.2 13.3 246 10
2012-05-21 08:53:45 51°11.891 2°47.817 251.3 13.4 247 10
2012-05-21 08:54:45 51°11.799 2°47.496 248.8 13.3 245 9.9
2012-05-21 08:55:45 51°11.712 2°47.165 250.9 13.8 247 9.9
2012-05-21 08:56:45 51°11.618 2°46.838 251 13.5 245 9.9
2012-05-21 08:57:45 51°11.531 2°46.506 254.5 13.4 254 9.9
2012-05-21 08:58:45 51°11.475 2°46.16 260.8 13.5 255 11.2
2012-05-21 08:59:45 51°11.426 2°45.815 262.8 13.4 256 10.8
2012-05-21 09:00:45 51°11.372 2°45.473 261.4 13.3 258 11.1
2012-05-21 09:01:45 51°11.32 2°45.132 259.7 13.4 253 11.5
2012-05-21 09:02:45 51°11.263 2°44.793 260.3 13.1 254 12.4
2012-05-21 09:03:45 51°11.205 2°44.455 258.9 13.3 254 12.3
2012-05-21 09:04:45 51°11.155 2°44.114 262 12.9 255 12.3
2012-05-21 09:05:45 51°11.104 2°43.777 258.5 13 257 12.2
2012-05-21 09:06:45 51°11.049 2°43.443 260.5 13 256 12.6
2012-05-21 09:07:45 51°11.005 2°43.104 261.3 13.1 257 12.2
2012-05-21 09:08:45 51°10.95 2°42.777 259.6 12.9 252 12.6
2012-05-21 09:09:45 51°10.898 2°42.448 258.9 12.8 257 12.7
2012-05-21 09:10:45 51°10.844 2°42.12 259.6 13 253 12.5
2012-05-21 09:11:45 51°10.791 2°41.786 259.5 13 256 12.5
2012-05-21 09:12:45 51°10.74 2°41.45 261.4 13 258 12.7
2012-05-21 09:13:45 51°10.693 2°41.114 260.6 13.1 258 13.4
2012-05-21 09:14:44 51°10.643 2°40.784 260 13.2 254 13.4
2012-05-21 09:15:44 51°10.589 2°40.449 259.3 13.1 256 14
2012-05-21 09:16:45 51°10.549 2°40.15 277.1 7.1 264 14.8
2012-05-21 09:17:44 51°10.572 2°40.041 341.3 3 317 14.4
2012-05-21 09:18:45 51°10.588 2°40.036 47.9 0.5 184 14.3
2012-05-21 09:19:44 51°10.565 2°40.022 82.1 1.7 209 14.6
2012-05-21 09:20:45 51°10.539 2°40.003 91.8 1.8 203 14.6
2012-05-21 09:21:45 51°10.513 2°39.982 92.2 1.7 205 14.7
2012-05-21 09:22:44 51°10.488 2°39.962 90.1 1.9 206 14.9
2012-05-21 09:23:45 51°10.461 2°39.94 88.6 1.8 209 14.5
2012-05-21 09:24:44 51°10.437 2°39.918 84.1 1.6 208 14.5
2012-05-21 09:25:45 51°10.41 2°39.9 84.3 1.6 208 14.2
2012-05-21 09:26:44 51°10.384 2°39.88 83.3 1.7 205 13.9
2012-05-21 09:27:45 51°10.357 2°39.861 84.9 1.8 206 13.9
2012-05-21 09:28:45 51°10.333 2°39.841 87.2 1.4 207 13.6
2012-05-21 09:29:44 51°10.308 2°39.824 86.5 1.8 204 13.8
2012-05-21 09:30:45 51°10.282 2°39.807 86.1 1.6 200 14
2012-05-21 09:31:44 51°10.259 2°39.79 85.7 1.7 206 14.1
2012-05-21 09:32:45 51°10.234 2°39.77 84.6 1.9 201 13.8
2012-05-21 09:33:44 51°10.21 2°39.751 85.4 1.8 206 13.8
2012-05-21 09:34:45 51°10.187 2°39.732 87.8 1.3 208 13.1
2012-05-21 09:35:44 51°10.164 2°39.712 86.8 1.5 210 13.3
2012-05-21 09:36:44 51°10.142 2°39.702 79.5 1.2 129 13
2012-05-21 09:37:45 51°10.128 2°39.709 66.8 1 206 12.9
2012-05-21 09:38:45 51°10.107 2°39.699 68 1.3 205 12.7
2012-05-21 09:39:45 51°10.082 2°39.683 83.7 1.6 204 13
2012-05-21 09:40:45 51°10.058 2°39.664 92.9 1.6 205 12.7
2012-05-21 09:41:45 51°10.035 2°39.645 101.4 1.7 202 12.7
2012-05-21 09:42:45 51°10.012 2°39.625 97.3 1.3 211 12.1
2012-05-21 09:43:45 51°9.995 2°39.66 83.3 4.9 85 12.1
2012-05-21 09:44:45 51°10.052 2°39.814 44.3 7.6 38 12.1
2012-05-21 09:45:45 51°10.176 2°39.886 18.2 7.9 15 13.6
2012-05-21 09:46:45 51°10.28 2°40.011 57 8.2 64 14.7
2012-05-21 09:47:45 51°10.333 2°40.211 52.6 8 50 14
2012-05-21 09:48:45 51°10.467 2°40.288 12 10.1 8 14.3
2012-05-21 09:49:45 51°10.585 2°40.276 332.1 4.6 314 14.5
2012-05-21 09:50:45 51°10.586 2°40.19 276.8 2.7 250 14.7
2012-05-21 09:51:45 51°10.568 2°40.135 267.5 2 238 14.2
2012-05-21 09:52:45 51°10.527 2°40.06 229.3 6.3 220 15
2012-05-21 09:53:45 51°10.434 2°39.923 231.7 8 231 14.6
2012-05-21 09:54:45 51°10.376 2°39.785 250.2 4.8 239 15.1
2012-05-21 09:55:45 51°10.346 2°39.69 257.7 3.8 245 15
2012-05-21 09:56:45 51°10.315 2°39.614 252.2 3.4 235 14.8
2012-05-21 09:57:45 51°10.282 2°39.539 251.2 3.6 237 14.8
2012-05-21 09:58:45 51°10.251 2°39.457 249.8 3.6 234 15.6
2012-05-21 09:59:45 51°10.213 2°39.381 246.8 3.7 231 15.7
2012-05-21 10:00:45 51°10.175 2°39.306 243.2 3.7 233 15.1
2012-05-21 10:01:45 51°10.137 2°39.23 247.5 3.5 231 15.4
2012-05-21 10:02:45 51°10.101 2°39.155 246.4 3.5 235 15.3
2012-05-21 10:03:45 51°10.067 2°39.075 247.2 3.5 233 15.2
2012-05-21 10:04:45 51°10.031 2°39.002 247 3.4 237 15
2012-05-21 10:05:45 51°9.997 2°38.926 246.6 3.6 233 15.2
2012-05-21 10:06:45 51°9.961 2°38.853 244.4 3.6 229 15.3
2012-05-21 10:07:45 51°9.926 2°38.778 245.2 3.3 240 14.3
2012-05-21 10:08:45 51°9.892 2°38.704 246.1 3.5 233 14.7
2012-05-21 10:09:45 51°9.857 2°38.631 246.2 3.4 232 14.3
2012-05-21 10:10:45 51°9.823 2°38.557 247 3.6 234 14.6
2012-05-21 10:11:45 51°9.79 2°38.484 248 3.4 231 14.8
2012-05-21 10:12:46 51°9.758 2°38.409 250.3 3.1 238 14.1
2012-05-21 10:13:45 51°9.728 2°38.335 249.7 3.3 241 13.9
2012-05-21 10:14:46 51°9.694 2°38.263 249 3.4 233 14.7
2012-05-21 10:15:46 51°9.667 2°38.189 258.5 3.1 245 14.2
2012-05-21 10:16:45 51°9.645 2°38.117 267.2 3.1 241 15.2
2012-05-21 10:17:45 51°9.624 2°38.043 265.6 3.1 243 14.4
2012-05-21 10:18:45 51°9.604 2°37.974 266.7 3.2 248 14.7
2012-05-21 10:19:45 51°9.583 2°37.905 264.1 3.2 246 14.6
2012-05-21 10:20:45 51°9.562 2°37.834 264.2 3.1 246 15.1
2012-05-21 10:21:45 51°9.537 2°37.766 259.7 3.1 237 14.8
2012-05-21 10:22:44 51°9.513 2°37.694 261.2 2.9 242 14.4
2012-05-21 10:23:45 51°9.488 2°37.623 261.3 3.1 243 14
2012-05-21 10:24:45 51°9.468 2°37.549 266.5 2.9 252 14
2012-05-21 10:25:45 51°9.449 2°37.478 268 3.3 246 15.2
2012-05-21 10:26:45 51°9.435 2°37.391 271.4 3.3 256 14.7
2012-05-21 10:27:45 51°9.42 2°37.305 272.4 3.6 254 15.9
2012-05-21 10:28:45 51°9.404 2°37.218 272.2 3.7 247 16.2
2012-05-21 10:29:45 51°9.387 2°37.129 270.7 3.5 249 16.4
2012-05-21 10:30:02 51°9.381 2°37.109 278.1 -999 70 16.8
2012-05-21 10:31:45 51°9.385 2°36.918 291.1 3 272 17.2
2012-05-21 10:32:45 51°9.385 2°36.837 282.4 3.1 266 17
2012-05-21 10:33:45 51°9.383 2°36.753 288.2 2.9 270 17.1
2012-05-21 10:34:45 51°9.386 2°36.671 289.7 3 274 17
2012-05-21 10:35:45 51°9.387 2°36.588 288.2 3.3 270 18.2
2012-05-21 10:36:45 51°9.39 2°36.512 292.5 2.3 273 17.8
2012-05-21 10:37:45 51°9.403 2°36.442 307.4 3.1 293 18.2
2012-05-21 10:38:45 51°9.41 2°36.396 305.6 1.6 258 18.9
2012-05-21 10:39:45 51°9.403 2°36.376 290.8 0.7 215 17.9
2012-05-21 10:40:45 51°9.389 2°36.377 271.3 1.1 174 18.5
2012-05-21 10:41:45 51°9.375 2°36.382 255.4 0.9 163 18
2012-05-21 10:42:45 51°9.36 2°36.382 250 2 222 18.4
2012-05-21 10:43:45 51°9.331 2°36.276 258.4 5.6 247 18.7
2012-05-21 10:44:45 51°9.314 2°36.132 267.6 4.4 263 18.1
2012-05-21 10:45:45 51°9.305 2°36.058 272.7 1.7 256 18.3
2012-05-21 10:46:45 51°9.299 2°36.028 280.8 0.6 231 17.8
2012-05-21 10:47:45 51°9.29 2°36.021 278.9 0.5 187 18.9
2012-05-21 10:48:45 51°9.28 2°36.025 272.9 0.7 140 18.2
2012-05-21 10:49:45 51°9.268 2°36.041 262.1 1 127 18
2012-05-21 10:50:45 51°9.258 2°36.061 247.1 0.9 156 18.6
2012-05-21 10:51:45 51°9.249 2°36.033 280.3 1.7 266 17.9
2012-05-21 10:52:45 51°9.26 2°35.991 318.1 1.4 317 18.5
2012-05-21 10:53:34 51°28.55 2°40.029 125.1 -999 -999 -999
2012-05-21 10:54:05 51°9.3 2°36.005 42.6 3.3 53 18.5
2012-05-21 10:55:05 51°9.3 2°36.156 92.1 8.6 91 17.8
2012-05-21 10:56:05 51°9.339 2°36.417 71 10.7 70 18.4
2012-05-21 10:57:05 51°9.401 2°36.683 68.9 10.7 71 18.9
2012-05-21 10:58:05 51°9.464 2°36.95 69.3 10.8 68 17.8
2012-05-21 10:59:05 51°9.532 2°37.221 68.6 11.2 69 18.4
2012-05-21 11:00:05 51°9.597 2°37.495 68.3 11.2 68 18.1
2012-05-21 11:01:05 51°9.662 2°37.776 68.4 11.3 69 16.9
2012-05-21 11:02:05 51°9.728 2°38.054 67.7 11.2 68 16.4
2012-05-21 11:03:05 51°9.791 2°38.336 69.9 11.4 75 17.1
2012-05-21 11:04:05 51°9.853 2°38.619 68.7 11.3 73 16.1
2012-05-21 11:05:05 51°9.916 2°38.9 69.8 11.4 74 15.5
2012-05-21 11:06:05 51°9.98 2°39.187 70.5 11.3 72 15.6
2012-05-21 11:07:05 51°10.041 2°39.471 70.2 11.4 69 14.8
2012-05-21 11:08:05 51°10.105 2°39.759 69.3 11.6 71 15.5
2012-05-21 11:09:05 51°10.167 2°40.044 68.9 11.2 67 14.9
2012-05-21 11:10:05 51°10.23 2°40.332 69.8 11.6 70 15.2
2012-05-21 11:11:05 51°10.294 2°40.623 68.4 11.7 70 15.2
2012-05-21 11:12:05 51°10.359 2°40.909 69.3 11.5 70 14.2
2012-05-21 11:13:05 51°10.424 2°41.197 69.2 11.5 69 14.9
2012-05-21 11:14:05 51°10.49 2°41.485 67.3 11.5 68 14
2012-05-21 11:15:05 51°10.554 2°41.775 70.8 11.5 68 14.2
2012-05-21 11:16:05 51°10.617 2°42.064 68.9 11.6 67 14.3
2012-05-21 11:17:05 51°10.681 2°42.357 69.8 11.7 73 14.2
2012-05-21 11:18:05 51°10.745 2°42.65 68.9 11.9 73 14.4
2012-05-21 11:19:05 51°10.812 2°42.944 67.2 11.8 67 14.6
2012-05-21 11:20:05 51°10.878 2°43.24 69.4 11.7 70 14.3
2012-05-21 11:21:05 51°10.947 2°43.534 67.7 12 73 14.9
2012-05-21 11:22:05 51°11.013 2°43.828 69.2 11.8 72 14.6
2012-05-21 11:23:05 51°11.083 2°44.122 69.8 11.8 69 14.5
2012-05-21 11:24:05 51°11.149 2°44.415 70.2 11.8 70 15
2012-05-21 11:25:05 51°11.216 2°44.707 68.2 11.8 70 14.5
2012-05-21 11:26:05 51°11.285 2°44.999 69 11.9 71 14.5
2012-05-21 11:27:05 51°11.351 2°45.297 71.8 12 70 15
2012-05-21 11:28:05 51°11.421 2°45.593 68.5 12 69 14.2
2012-05-21 11:29:05 51°11.491 2°45.891 69 11.9 67 14.7
2012-05-21 11:30:06 51°11.559 2°46.191 69.3 11.7 70 15.1
2012-05-21 11:31:05 51°11.63 2°46.481 66.5 12 68 14.5
2012-05-21 11:32:05 51°11.699 2°46.783 70.1 12.2 69 14.5
2012-05-21 11:33:05 51°11.765 2°47.084 70.2 12 70 13.4
2012-05-21 11:34:05 51°11.843 2°47.375 61.9 11.8 63 14.2
2012-05-21 11:35:05 51°11.941 2°47.644 57.4 11.9 60 13.8
2012-05-21 11:36:05 51°12.037 2°47.916 60.3 11.8 59 13.7
2012-05-21 11:37:05 51°12.131 2°48.19 60.3 11.8 62 13.7
2012-05-21 11:38:05 51°12.226 2°48.465 61.1 11.8 61 14.4
2012-05-21 11:39:05 51°12.322 2°48.743 60.5 11.9 63 13.8
2012-05-21 11:40:05 51°12.419 2°49.019 60.6 12 61 14.1
2012-05-21 11:41:05 51°12.51 2°49.295 60.9 12 62 14.8
2012-05-21 11:42:05 51°12.606 2°49.573 60.9 11.9 65 13.4
2012-05-21 11:43:05 51°12.704 2°49.847 59.5 11.9 60 13.8
2012-05-21 11:44:05 51°12.802 2°50.124 61.1 11.9 59 14.2
2012-05-21 11:45:05 51°12.898 2°50.405 61.1 12 61 13.4
2012-05-21 11:46:05 51°12.999 2°50.685 60.3 12.2 62 13.9
2012-05-21 11:47:05 51°13.097 2°50.961 61 11.8 61 -999
2012-05-21 11:48:05 51°13.192 2°51.236 61 12 60 14.1
2012-05-21 11:49:05 51°13.272 2°51.458 50.8 5.7 58 13.9
2012-05-21 11:50:05 51°13.288 2°51.526 58.4 1.4 101 14
2012-05-21 11:51:08 51°13.286 2°51.563 98.3 1.5 82 14.1
2012-05-21 11:52:07 51°13.285 2°51.6 117.2 1.5 98 13.5
2012-05-21 11:53:05 51°13.283 2°51.639 104.8 1.4 113 14.3
2012-05-21 11:54:05 51°13.282 2°51.68 97.9 1.6 94 13.4
2012-05-21 11:55:05 51°13.281 2°51.72 92.6 1.4 87 13.4
2012-05-21 11:56:05 51°13.278 2°51.761 92.9 1.4 98 13.5
2012-05-21 11:57:05 51°13.276 2°51.801 98.4 1.6 89 12.9
2012-05-21 11:58:05 51°13.276 2°51.842 95.9 1.6 82 13.1
2012-05-21 11:59:05 51°13.276 2°51.885 85.5 1.7 83 12.9
2012-05-21 12:00:05 51°13.276 2°51.924 83 1.5 88 13.2
2012-05-21 12:01:05 51°13.276 2°51.967 80 1.4 86 13.2
2012-05-21 12:02:05 51°13.275 2°52.008 83.4 1.5 98 12.9
2012-05-21 12:03:05 51°13.273 2°52.046 89.3 1.4 98 13.4
2012-05-21 12:04:05 51°13.271 2°52.083 91.9 1.3 97 13.4
2012-05-21 12:05:05 51°13.27 2°52.121 92.1 1.4 94 13.1
2012-05-21 12:06:05 51°13.27 2°52.159 92.7 1.4 89 12.8
2012-05-21 12:07:05 51°13.271 2°52.198 90.1 1.5 94 13.1
2012-05-21 12:08:05 51°13.271 2°52.237 89.7 1.5 85 12.7
2012-05-21 12:09:05 51°13.271 2°52.275 91.6 1.5 88 12.4
2012-05-21 12:10:05 51°13.279 2°52.343 62.9 3.7 63 11.9
2012-05-21 12:11:05 51°13.32 2°52.418 11.3 3.8 30 12.3
2012-05-21 12:12:06 51°13.379 2°52.392 306.4 6.5 312 13.1
2012-05-21 12:13:05 51°13.422 2°52.177 274.8 9.9 274 13.4
2012-05-21 12:14:05 51°13.423 2°51.912 269.2 10.3 269 12.7
2012-05-21 12:15:05 51°13.42 2°51.644 268.8 9.9 272 13.4
2012-05-21 12:16:05 51°13.398 2°51.386 249.7 9.8 247 13.6
2012-05-21 12:17:05 51°13.317 2°51.2 230.6 5.6 220 14.2
2012-05-21 12:18:05 51°13.266 2°51.148 226.7 2.4 212 13.6
2012-05-21 12:19:05 51°13.236 2°51.129 226.3 1.8 197 14
2012-05-21 12:20:05 51°13.22 2°51.127 237.4 0.8 156 14.8
2012-05-21 12:21:05 51°13.216 2°51.137 248.7 0.5 62 13.4
2012-05-21 12:22:05 51°13.217 2°51.159 262.6 0.8 106 14.5
2012-05-21 12:23:06 51°13.207 2°51.146 230.6 1.9 212 14.2
2012-05-21 12:24:05 51°13.152 2°51.132 210.1 2.9 185 13.8
2012-05-21 12:25:05 51°13.119 2°51.134 216.9 1.4 177 13.6
2012-05-21 12:26:05 51°13.105 2°51.145 233.5 0.4 135 13.1
2012-05-21 12:27:05 51°13.1 2°51.161 244.7 0.2 196 13
2012-05-21 12:28:05 51°13.072 2°51.116 234.9 4.3 210 14
2012-05-21 12:29:05 51°12.998 2°51.043 224.4 5.5 213 13.9
2012-05-21 12:30:05 51°12.954 2°50.953 247.6 3.6 241 13.1
2012-05-21 12:31:05 51°12.929 2°50.87 251.3 3.3 249 12.9
2012-05-21 12:32:05 51°12.909 2°50.802 250.9 2.5 239 13.6
2012-05-21 12:33:05 51°12.882 2°50.748 234.5 2.9 214 13.5
2012-05-21 12:34:05 51°12.833 2°50.714 213.6 3.3 206 12.5
2012-05-21 12:35:05 51°12.784 2°50.681 222.5 3.3 202 13.2
2012-05-21 12:36:05 51°12.737 2°50.647 221.6 3.2 199 12.9
2012-05-21 12:37:05 51°12.691 2°50.614 222.6 2.9 205 12.7
2012-05-21 12:38:05 51°12.645 2°50.58 223.2 3.1 203 13.1
2012-05-21 12:39:05 51°12.6 2°50.545 224.4 3 201 13.1
2012-05-21 12:40:05 51°12.561 2°50.502 233 3 231 11.9
2012-05-21 12:41:05 51°12.532 2°50.45 242.1 2.7 235 12.9
2012-05-21 12:42:05 51°12.507 2°50.39 245.8 2.7 238 13.1
2012-05-21 12:43:05 51°12.483 2°50.333 242.5 2.7 233 12.9
2012-05-21 12:44:05 51°12.457 2°50.274 241.5 2.7 239 12.9
2012-05-21 12:45:05 51°12.43 2°50.217 242.7 2.8 238 12.2
2012-05-21 12:46:05 51°12.401 2°50.162 240.3 2.7 226 12.8
2012-05-21 12:47:05 51°12.372 2°50.106 239.6 2.8 231 12.4
2012-05-21 12:48:05 51°12.341 2°50.054 235.6 2.7 223 12.6
2012-05-21 12:49:05 51°12.311 2°50.004 239.1 2.7 228 12.9
2012-05-21 12:50:05 51°12.281 2°49.949 241 2.8 233 12.5
2012-05-21 12:51:05 51°12.253 2°49.893 240.4 2.6 224 12.5
2012-05-21 12:52:05 51°12.225 2°49.839 240.3 2.7 230 12.5
2012-05-21 12:53:05 51°12.195 2°49.785 241.5 2.7 218 13.6
2012-05-21 12:54:05 51°12.166 2°49.732 241.5 2.6 224 13
2012-05-21 12:55:05 51°12.138 2°49.677 239.8 2.7 233 12.5
2012-05-21 12:56:05 51°12.11 2°49.621 240.6 2.7 232 12.6
2012-05-21 12:57:05 51°12.08 2°49.57 236.3 2.6 227 12.1
2012-05-21 12:58:05 51°12.049 2°49.518 239.5 2.7 229 12.4
2012-05-21 12:59:05 51°12.019 2°49.464 242.5 2.9 220 12.5
2012-05-21 13:00:05 51°11.99 2°49.409 240.9 2.7 237 11.9
2012-05-21 13:01:05 51°11.967 2°49.351 251.2 2.6 253 12.4
2012-05-21 13:02:05 51°11.96 2°49.284 264.8 2.6 275 12
2012-05-21 13:03:05 51°11.958 2°49.217 265.8 2.4 267 12.5
2012-05-21 13:04:05 51°11.958 2°49.148 266.7 2.7 271 12.6
2012-05-21 13:05:05 51°11.964 2°49.083 273 2.3 273 12.3
2012-05-21 13:06:05 51°11.974 2°49.022 279.5 2.3 278 13
2012-05-21 13:07:05 51°11.99 2°48.967 284.1 2.2 295 12.7
2012-05-21 13:08:05 51°12.013 2°48.912 291.7 2.5 302 13.1
2012-05-21 13:09:05 51°12.044 2°48.864 304.5 2.6 322 12
2012-05-21 13:10:05 51°12.078 2°48.84 318 2.3 346 12
2012-05-21 13:11:05 51°12.11 2°48.837 332.5 1.3 31 12.5
2012-05-21 13:12:05 51°12.117 2°48.858 322 1 97 12.4
2012-05-21 13:13:05 51°12.114 2°48.896 292.4 1.6 88 11.8
2012-05-21 13:14:05 51°12.11 2°48.943 257 1.9 94 12.5
2012-05-21 13:15:05 51°12.113 2°48.989 239.4 1.7 82 12.3
2012-05-21 13:16:05 51°12.115 2°49.034 233.7 1.7 88 12.7
2012-05-21 13:17:05 51°12.113 2°49.041 266.7 1 285 12.3
2012-05-21 13:18:05 51°12.137 2°49.016 317.2 3 348 12.4
2012-05-21 13:19:05 51°12.195 2°49.054 38.6 4.5 52 12.5
2012-05-21 13:20:05 51°12.24 2°49.223 60 9.8 61 12.6
2012-05-21 13:21:05 51°12.328 2°49.479 58.3 11.4 60 12.5
2012-05-21 13:22:05 51°12.422 2°49.744 59.7 11.5 60 12.1
2012-05-21 13:23:05 51°12.516 2°50.013 60.3 11.6 61 12.7
2012-05-21 13:24:05 51°12.617 2°50.277 54.9 11.6 58 12.4
2012-05-21 13:25:05 51°12.726 2°50.526 54.1 11.3 53 12.9
2012-05-21 13:26:05 51°12.834 2°50.775 55 11.6 54 12.4
2012-05-21 13:27:05 51°12.942 2°51.033 55.9 11.7 56 13.1
2012-05-21 13:28:05 51°13.046 2°51.289 55.6 11.6 57 13.2
2012-05-21 13:29:05 51°13.15 2°51.539 55.1 11.4 56 13.2
2012-05-21 13:30:05 51°13.255 2°51.791 54.6 11.3 59 13.4
2012-05-21 13:31:05 51°13.364 2°52.037 53.9 11.4 54 12.9
2012-05-21 13:32:05 51°13.471 2°52.286 54.7 11.5 58 12.8
2012-05-21 13:33:05 51°13.578 2°52.543 56.8 11.8 57 13.4
2012-05-21 13:34:05 51°13.695 2°52.779 45.4 11.3 47 12.6
2012-05-21 13:35:06 51°13.826 2°52.994 46.4 11.4 49 13.1
2012-05-21 13:36:05 51°13.94 2°53.222 50.9 11.2 55 13
2012-05-21 13:37:05 51°14.057 2°53.451 47.5 11 50 12.5
2012-05-21 13:38:05 51°14.185 2°53.667 44.8 11.1 47 12.2
2012-05-21 13:39:05 51°14.311 2°53.879 43.4 10.9 45 12.9
2012-05-21 13:40:06 51°14.436 2°54.086 43.2 11.2 46 13.4
2012-05-21 13:41:05 51°14.55 2°54.317 49.1 11.3 54 14.4
2012-05-21 13:42:05 51°14.628 2°54.587 82.1 11.3 85 14
2012-05-21 13:43:05 51°14.59 2°54.879 115.5 11.3 116 14.5
2012-05-21 13:44:06 51°14.459 2°55.063 155.4 10 150 -999
2012-05-21 13:45:08 51°14.335 2°55.197 146.9 7.3 145 -999
2012-05-21 13:46:08 51°14.239 2°55.304 144.2 6.9 144 -999
2012-05-21 13:47:08 51°14.151 2°55.391 150.9 5.7 151 -999
2012-05-21 13:48:08 51°14.069 2°55.454 155.8 5.2 155 -999
2012-05-21 13:49:08 51°13.995 2°55.506 157 4.5 158 13.7
2012-05-21 13:50:08 51°13.926 2°55.55 159 4.4 158 -999
2012-05-21 13:51:08 51°13.859 2°55.597 154.3 4.3 153 -999
2012-05-21 13:52:08 51°13.794 2°55.652 153.2 4.7 154 -999
2012-05-21 13:53:08 51°13.729 2°55.728 126.9 4.8 127 13.7
2012-05-21 13:54:08 51°13.685 2°55.834 122.7 4.5 122 -999
2012-05-21 13:55:08 51°13.654 2°55.932 109.4 3.9 110 -999
2012-05-21 13:56:08 51°13.64 2°56.004 107.3 1.7 110 -999
2012-05-21 13:57:08 51°13.635 2°56.019 118.3 0.2 161 -999
2012-05-21 13:58:08 51°13.636 2°56.019 126 0.1 291 -999